Sioux Lookout Airport
CYXL : rendu visible

Aérodrome :











RETROUVEZ-NOUS SUR...

 
LOGIN :

S'inscrire | Disclaimer

   EN    FR    IT 

 









Légende :    VFR   VFR Marginal   IFR   IFR Intensif   IFR Très Intensif
Visi : 
Plafond : 
>= 8 km
>= 3000ft
5 à 8 km
1000 à 3000 ft
1500m à 5 km
500 à 1000 ft
800 à 1500m
200 à 500 ft
< 800m
< 200 ft
Symboles :   Orages  Brouillard  Fortes neiges  Fortes précipitations  Vent > 20 kt






- Altitude de l'aérodrome : 1258 ft
- Code IATA : YXL


CYXL - Sioux Lookout

DERNIER METAR :
  • 150800Z 22009KT 15SM SCT110 17/13 A2979 RMK AC3 SLP092 DENSITY ALT 2000FT

METARs EXPIRÉS :
  • 150700Z 23007G16KT 15SM FEW060 SCT100 SCT240 18/12 A2980 RMK SC1AC2CI1 SLP096 DENSITY ALT 2000FT
  • 150625Z 22008KT 15SM FEW060TCU SCT100 BKN240 18/13 A2980 RMK TCU2AC1CI2 SLP095 DENSITY ALT 2100FT
  • 150600Z 22008KT 15SM -SHRA FEW060TCU SCT100 BKN200 18/13 A2980 RMK TCU2AC2CI2 SLP097 DENSITY ALT 2000FT

TAF TAF CYXL
Valide du 15 à 08h jusqu'au 15 à 20h UTC


150738Z 1508/1520 23008G18KT P6SM FEW060 SCT100
TEMPO 1508/1509 P6SM -SHRA SCT060 BKN100
FM151200 22010G20KT P6SM FEW060
BECMG 1512/1514 23015G25KT
FM151900 24015G30KT P6SM -SHRA BKN060 RMK NXT FCST BY 151400Z
FIR CZWG / Amérique du Nord



MET'MAP, la Météo Aéronautique d'un coup d'oeil ! - Copyright ORBIFLY Décembre 2007 - Disclaimer

ORBIFLY MET'MAP TEAM :

Programmation & Développement : Alexandra Zaïnal
Sur une idée originale de : Baudouin d'Aumeries
Assistance à la programmation : Marc-Olivier Méhu
Soutien technique & logistique : Manuel Goepfert

Contact : metmap@orbifly.com




SOURCES & CREDITS :

   NOAA       Earth
Advisory